sensor_id;sensor_type;location;lat;lon;timestamp;P1;durP1;ratioP1;P2;durP2;ratioP2
15043;SDS011;7619;48.562;8.910;2024-01-30T00:00:54;9.50;;;7.47;;
15043;SDS011;7619;48.562;8.910;2024-01-30T00:03:22;10.00;;;7.43;;
15043;SDS011;7619;48.562;8.910;2024-01-30T00:05:50;10.43;;;7.70;;
15043;SDS011;7619;48.562;8.910;2024-01-30T00:08:19;11.90;;;8.17;;
15043;SDS011;7619;48.562;8.910;2024-01-30T00:10:46;18.33;;;8.40;;
15043;SDS011;7619;48.562;8.910;2024-01-30T00:13:15;9.90;;;7.30;;
15043;SDS011;7619;48.562;8.910;2024-01-30T00:15:44;12.63;;;8.00;;
15043;SDS011;7619;48.562;8.910;2024-01-30T00:18:12;17.73;;;9.43;;
15043;SDS011;7619;48.562;8.910;2024-01-30T00:20:40;12.57;;;9.13;;
15043;SDS011;7619;48.562;8.910;2024-01-30T00:23:09;12.57;;;8.53;;
15043;SDS011;7619;48.562;8.910;2024-01-30T00:25:37;14.73;;;9.80;;
15043;SDS011;7619;48.562;8.910;2024-01-30T00:28:05;14.00;;;9.07;;
15043;SDS011;7619;48.562;8.910;2024-01-30T00:30:33;13.70;;;8.97;;
15043;SDS011;7619;48.562;8.910;2024-01-30T00:33:01;13.03;;;8.77;;
15043;SDS011;7619;48.562;8.910;2024-01-30T00:35:29;13.27;;;8.77;;
15043;SDS011;7619;48.562;8.910;2024-01-30T00:37:57;14.33;;;9.07;;
15043;SDS011;7619;48.562;8.910;2024-01-30T00:40:25;11.60;;;8.30;;
15043;SDS011;7619;48.562;8.910;2024-01-30T00:42:54;13.00;;;8.77;;
15043;SDS011;7619;48.562;8.910;2024-01-30T00:45:22;15.03;;;8.67;;
15043;SDS011;7619;48.562;8.910;2024-01-30T00:47:50;14.07;;;8.53;;
15043;SDS011;7619;48.562;8.910;2024-01-30T00:50:18;10.13;;;8.07;;
15043;SDS011;7619;48.562;8.910;2024-01-30T00:52:46;12.20;;;8.03;;
15043;SDS011;7619;48.562;8.910;2024-01-30T00:55:14;12.40;;;7.97;;
15043;SDS011;7619;48.562;8.910;2024-01-30T00:57:42;12.30;;;8.30;;
15043;SDS011;7619;48.562;8.910;2024-01-30T01:00:11;14.63;;;8.30;;
15043;SDS011;7619;48.562;8.910;2024-01-30T01:02:40;13.03;;;9.03;;
15043;SDS011;7619;48.562;8.910;2024-01-30T01:05:08;10.07;;;7.77;;
15043;SDS011;7619;48.562;8.910;2024-01-30T01:07:36;12.67;;;8.47;;
15043;SDS011;7619;48.562;8.910;2024-01-30T01:10:04;13.27;;;8.20;;
15043;SDS011;7619;48.562;8.910;2024-01-30T01:12:32;14.63;;;8.53;;
15043;SDS011;7619;48.562;8.910;2024-01-30T01:15:00;13.07;;;7.87;;
15043;SDS011;7619;48.562;8.910;2024-01-30T01:17:29;11.47;;;8.43;;
15043;SDS011;7619;48.562;8.910;2024-01-30T01:19:57;9.83;;;7.40;;
15043;SDS011;7619;48.562;8.910;2024-01-30T01:22:25;10.20;;;7.87;;
15043;SDS011;7619;48.562;8.910;2024-01-30T01:24:53;13.67;;;8.80;;
15043;SDS011;7619;48.562;8.910;2024-01-30T01:27:21;13.30;;;7.83;;
15043;SDS011;7619;48.562;8.910;2024-01-30T01:29:49;14.40;;;7.57;;
15043;SDS011;7619;48.562;8.910;2024-01-30T01:32:17;11.63;;;7.73;;
15043;SDS011;7619;48.562;8.910;2024-01-30T01:34:45;11.13;;;7.23;;
15043;SDS011;7619;48.562;8.910;2024-01-30T01:37:14;14.20;;;8.13;;
15043;SDS011;7619;48.562;8.910;2024-01-30T01:39:41;11.07;;;7.73;;
15043;SDS011;7619;48.562;8.910;2024-01-30T01:42:09;10.50;;;7.83;;
15043;SDS011;7619;48.562;8.910;2024-01-30T01:44:38;9.60;;;7.13;;
15043;SDS011;7619;48.562;8.910;2024-01-30T01:47:05;13.77;;;8.23;;
15043;SDS011;7619;48.562;8.910;2024-01-30T01:49:34;12.77;;;8.27;;
15043;SDS011;7619;48.562;8.910;2024-01-30T01:52:02;9.10;;;7.17;;
15043;SDS011;7619;48.562;8.910;2024-01-30T01:54:30;11.60;;;7.57;;
15043;SDS011;7619;48.562;8.910;2024-01-30T01:56:58;11.73;;;8.23;;
15043;SDS011;7619;48.562;8.910;2024-01-30T01:59:27;11.47;;;7.77;;
15043;SDS011;7619;48.562;8.910;2024-01-30T02:01:55;11.20;;;7.80;;
15043;SDS011;7619;48.562;8.910;2024-01-30T02:04:23;12.70;;;7.57;;
15043;SDS011;7619;48.562;8.910;2024-01-30T02:06:51;10.47;;;7.57;;
15043;SDS011;7619;48.562;8.910;2024-01-30T02:09:19;14.87;;;9.10;;
15043;SDS011;7619;48.562;8.910;2024-01-30T02:11:47;14.00;;;8.60;;
15043;SDS011;7619;48.562;8.910;2024-01-30T02:14:15;12.47;;;7.87;;
15043;SDS011;7619;48.562;8.910;2024-01-30T02:16:43;12.13;;;7.17;;
15043;SDS011;7619;48.562;8.910;2024-01-30T02:19:11;10.73;;;7.83;;
15043;SDS011;7619;48.562;8.910;2024-01-30T02:21:39;13.03;;;7.50;;
15043;SDS011;7619;48.562;8.910;2024-01-30T02:24:07;10.37;;;7.57;;
15043;SDS011;7619;48.562;8.910;2024-01-30T02:26:35;9.83;;;7.17;;
15043;SDS011;7619;48.562;8.910;2024-01-30T02:29:03;12.80;;;7.50;;
15043;SDS011;7619;48.562;8.910;2024-01-30T02:31:31;10.30;;;7.20;;
15043;SDS011;7619;48.562;8.910;2024-01-30T02:33:59;8.57;;;7.20;;
15043;SDS011;7619;48.562;8.910;2024-01-30T02:36:27;11.30;;;7.87;;
15043;SDS011;7619;48.562;8.910;2024-01-30T02:38:55;10.50;;;7.70;;
15043;SDS011;7619;48.562;8.910;2024-01-30T02:41:23;10.23;;;8.13;;
15043;SDS011;7619;48.562;8.910;2024-01-30T02:43:51;10.63;;;7.60;;
15043;SDS011;7619;48.562;8.910;2024-01-30T02:46:19;10.50;;;7.07;;
15043;SDS011;7619;48.562;8.910;2024-01-30T02:48:47;11.10;;;7.93;;
15043;SDS011;7619;48.562;8.910;2024-01-30T02:51:15;11.97;;;8.63;;
15043;SDS011;7619;48.562;8.910;2024-01-30T02:53:43;11.67;;;7.50;;
15043;SDS011;7619;48.562;8.910;2024-01-30T02:56:11;13.77;;;8.30;;
15043;SDS011;7619;48.562;8.910;2024-01-30T02:58:40;12.27;;;8.27;;
15043;SDS011;7619;48.562;8.910;2024-01-30T03:01:08;10.70;;;8.30;;
15043;SDS011;7619;48.562;8.910;2024-01-30T03:03:36;11.03;;;7.73;;
15043;SDS011;7619;48.562;8.910;2024-01-30T03:06:04;11.70;;;8.20;;
15043;SDS011;7619;48.562;8.910;2024-01-30T03:08:33;10.17;;;7.47;;
15043;SDS011;7619;48.562;8.910;2024-01-30T03:11:02;10.63;;;7.83;;
15043;SDS011;7619;48.562;8.910;2024-01-30T03:13:30;11.50;;;8.60;;
15043;SDS011;7619;48.562;8.910;2024-01-30T03:15:58;9.03;;;7.57;;
15043;SDS011;7619;48.562;8.910;2024-01-30T03:18:26;11.80;;;7.73;;
15043;SDS011;7619;48.562;8.910;2024-01-30T03:20:54;10.90;;;7.43;;
15043;SDS011;7619;48.562;8.910;2024-01-30T03:23:22;10.97;;;7.30;;
15043;SDS011;7619;48.562;8.910;2024-01-30T03:25:50;8.70;;;6.73;;
15043;SDS011;7619;48.562;8.910;2024-01-30T03:28:18;11.77;;;7.67;;
15043;SDS011;7619;48.562;8.910;2024-01-30T03:30:46;8.73;;;6.50;;
15043;SDS011;7619;48.562;8.910;2024-01-30T03:33:14;9.67;;;7.07;;
15043;SDS011;7619;48.562;8.910;2024-01-30T03:35:42;10.17;;;6.90;;
15043;SDS011;7619;48.562;8.910;2024-01-30T03:38:10;11.90;;;7.30;;
15043;SDS011;7619;48.562;8.910;2024-01-30T03:40:38;9.13;;;6.77;;
15043;SDS011;7619;48.562;8.910;2024-01-30T03:43:06;10.93;;;7.37;;
15043;SDS011;7619;48.562;8.910;2024-01-30T03:45:34;12.27;;;6.80;;
15043;SDS011;7619;48.562;8.910;2024-01-30T03:48:02;8.43;;;6.13;;
15043;SDS011;7619;48.562;8.910;2024-01-30T03:50:30;10.97;;;6.63;;
15043;SDS011;7619;48.562;8.910;2024-01-30T03:52:58;9.17;;;6.70;;
15043;SDS011;7619;48.562;8.910;2024-01-30T03:55:26;8.07;;;6.77;;
15043;SDS011;7619;48.562;8.910;2024-01-30T03:57:54;11.03;;;7.57;;
15043;SDS011;7619;48.562;8.910;2024-01-30T04:00:22;8.87;;;6.30;;
15043;SDS011;7619;48.562;8.910;2024-01-30T04:02:50;10.30;;;7.67;;
15043;SDS011;7619;48.562;8.910;2024-01-30T04:05:18;10.90;;;7.93;;
15043;SDS011;7619;48.562;8.910;2024-01-30T04:07:46;12.03;;;8.03;;
15043;SDS011;7619;48.562;8.910;2024-01-30T04:10:14;15.03;;;8.53;;
15043;SDS011;7619;48.562;8.910;2024-01-30T04:12:42;19.57;;;13.33;;
15043;SDS011;7619;48.562;8.910;2024-01-30T04:15:10;16.70;;;11.90;;
15043;SDS011;7619;48.562;8.910;2024-01-30T04:17:40;17.23;;;12.43;;
15043;SDS011;7619;48.562;8.910;2024-01-30T04:20:11;15.67;;;9.93;;
15043;SDS011;7619;48.562;8.910;2024-01-30T04:22:38;15.83;;;9.63;;
15043;SDS011;7619;48.562;8.910;2024-01-30T04:25:06;13.20;;;9.43;;
15043;SDS011;7619;48.562;8.910;2024-01-30T04:27:34;14.73;;;9.30;;
15043;SDS011;7619;48.562;8.910;2024-01-30T04:30:03;9.70;;;8.30;;
15043;SDS011;7619;48.562;8.910;2024-01-30T04:32:31;10.83;;;8.40;;
15043;SDS011;7619;48.562;8.910;2024-01-30T04:34:59;10.93;;;8.13;;
15043;SDS011;7619;48.562;8.910;2024-01-30T04:37:27;11.27;;;7.63;;
15043;SDS011;7619;48.562;8.910;2024-01-30T04:39:55;10.13;;;7.03;;
15043;SDS011;7619;48.562;8.910;2024-01-30T04:42:24;10.13;;;6.87;;
15043;SDS011;7619;48.562;8.910;2024-01-30T04:44:52;9.90;;;7.23;;
15043;SDS011;7619;48.562;8.910;2024-01-30T04:47:20;9.97;;;7.20;;
15043;SDS011;7619;48.562;8.910;2024-01-30T04:49:48;7.47;;;5.83;;
15043;SDS011;7619;48.562;8.910;2024-01-30T04:52:17;10.90;;;7.00;;
15043;SDS011;7619;48.562;8.910;2024-01-30T04:54:45;9.93;;;7.00;;
15043;SDS011;7619;48.562;8.910;2024-01-30T04:57:13;8.97;;;7.43;;
15043;SDS011;7619;48.562;8.910;2024-01-30T04:59:41;9.97;;;6.07;;
15043;SDS011;7619;48.562;8.910;2024-01-30T05:02:09;12.97;;;7.80;;
15043;SDS011;7619;48.562;8.910;2024-01-30T05:04:37;12.23;;;7.07;;
15043;SDS011;7619;48.562;8.910;2024-01-30T05:07:05;13.77;;;7.23;;
15043;SDS011;7619;48.562;8.910;2024-01-30T05:09:33;10.13;;;6.93;;
15043;SDS011;7619;48.562;8.910;2024-01-30T05:12:01;10.13;;;7.57;;
15043;SDS011;7619;48.562;8.910;2024-01-30T05:14:29;13.13;;;8.47;;
15043;SDS011;7619;48.562;8.910;2024-01-30T05:16:57;12.27;;;7.57;;
15043;SDS011;7619;48.562;8.910;2024-01-30T05:19:25;10.13;;;6.40;;
15043;SDS011;7619;48.562;8.910;2024-01-30T05:21:53;9.83;;;7.00;;
15043;SDS011;7619;48.562;8.910;2024-01-30T05:24:21;10.27;;;7.50;;
15043;SDS011;7619;48.562;8.910;2024-01-30T05:26:49;10.87;;;7.60;;
15043;SDS011;7619;48.562;8.910;2024-01-30T05:29:17;11.30;;;8.07;;
15043;SDS011;7619;48.562;8.910;2024-01-30T05:31:45;16.03;;;8.80;;
15043;SDS011;7619;48.562;8.910;2024-01-30T05:34:13;12.90;;;8.63;;
15043;SDS011;7619;48.562;8.910;2024-01-30T05:36:42;9.90;;;7.77;;
15043;SDS011;7619;48.562;8.910;2024-01-30T05:39:10;11.57;;;8.37;;
15043;SDS011;7619;48.562;8.910;2024-01-30T05:41:38;9.00;;;6.87;;
15043;SDS011;7619;48.562;8.910;2024-01-30T05:44:06;10.93;;;6.97;;
15043;SDS011;7619;48.562;8.910;2024-01-30T05:46:35;10.73;;;7.63;;
15043;SDS011;7619;48.562;8.910;2024-01-30T05:49:03;10.40;;;7.20;;
15043;SDS011;7619;48.562;8.910;2024-01-30T05:51:31;19.80;;;14.60;;
15043;SDS011;7619;48.562;8.910;2024-01-30T05:53:59;30.03;;;22.27;;
15043;SDS011;7619;48.562;8.910;2024-01-30T05:56:29;30.57;;;20.37;;
15043;SDS011;7619;48.562;8.910;2024-01-30T05:58:57;29.03;;;18.40;;
15043;SDS011;7619;48.562;8.910;2024-01-30T06:01:25;21.47;;;14.60;;
15043;SDS011;7619;48.562;8.910;2024-01-30T06:03:53;17.33;;;11.67;;
15043;SDS011;7619;48.562;8.910;2024-01-30T06:06:22;18.53;;;11.67;;
15043;SDS011;7619;48.562;8.910;2024-01-30T06:08:50;15.23;;;9.70;;
15043;SDS011;7619;48.562;8.910;2024-01-30T06:11:18;13.23;;;10.23;;
15043;SDS011;7619;48.562;8.910;2024-01-30T06:13:46;14.97;;;9.53;;
15043;SDS011;7619;48.562;8.910;2024-01-30T06:16:14;13.73;;;9.37;;
15043;SDS011;7619;48.562;8.910;2024-01-30T06:18:42;16.20;;;10.47;;
15043;SDS011;7619;48.562;8.910;2024-01-30T06:21:10;17.17;;;9.77;;
15043;SDS011;7619;48.562;8.910;2024-01-30T06:23:38;12.30;;;8.53;;
15043;SDS011;7619;48.562;8.910;2024-01-30T06:26:07;14.57;;;8.33;;
15043;SDS011;7619;48.562;8.910;2024-01-30T06:28:35;8.30;;;7.43;;
15043;SDS011;7619;48.562;8.910;2024-01-30T06:31:03;13.93;;;9.40;;
15043;SDS011;7619;48.562;8.910;2024-01-30T06:33:31;10.77;;;8.63;;
15043;SDS011;7619;48.562;8.910;2024-01-30T06:35:59;12.33;;;8.37;;
15043;SDS011;7619;48.562;8.910;2024-01-30T06:38:27;9.50;;;7.90;;
15043;SDS011;7619;48.562;8.910;2024-01-30T06:40:55;13.50;;;8.83;;
15043;SDS011;7619;48.562;8.910;2024-01-30T06:43:23;13.07;;;7.77;;
15043;SDS011;7619;48.562;8.910;2024-01-30T06:45:51;7.80;;;6.27;;
15043;SDS011;7619;48.562;8.910;2024-01-30T06:48:19;9.80;;;7.60;;
15043;SDS011;7619;48.562;8.910;2024-01-30T06:50:48;10.20;;;7.27;;
15043;SDS011;7619;48.562;8.910;2024-01-30T06:53:16;11.33;;;7.47;;
15043;SDS011;7619;48.562;8.910;2024-01-30T06:55:44;8.63;;;7.07;;
15043;SDS011;7619;48.562;8.910;2024-01-30T06:58:12;9.90;;;6.97;;
15043;SDS011;7619;48.562;8.910;2024-01-30T07:00:40;9.23;;;7.37;;
15043;SDS011;7619;48.562;8.910;2024-01-30T07:03:08;11.53;;;7.93;;
15043;SDS011;7619;48.562;8.910;2024-01-30T07:05:36;11.13;;;7.63;;
15043;SDS011;7619;48.562;8.910;2024-01-30T07:08:04;11.00;;;7.13;;
15043;SDS011;7619;48.562;8.910;2024-01-30T07:10:32;12.90;;;9.40;;
15043;SDS011;7619;48.562;8.910;2024-01-30T07:13:00;11.37;;;8.67;;
15043;SDS011;7619;48.562;8.910;2024-01-30T07:15:28;11.93;;;7.87;;
15043;SDS011;7619;48.562;8.910;2024-01-30T07:17:56;10.63;;;7.60;;
15043;SDS011;7619;48.562;8.910;2024-01-30T07:20:24;10.23;;;8.03;;
15043;SDS011;7619;48.562;8.910;2024-01-30T07:22:52;9.63;;;7.43;;
15043;SDS011;7619;48.562;8.910;2024-01-30T07:25:20;13.37;;;7.57;;
15043;SDS011;7619;48.562;8.910;2024-01-30T07:27:50;10.67;;;7.43;;
15043;SDS011;7619;48.562;8.910;2024-01-30T07:30:18;12.87;;;8.60;;
15043;SDS011;7619;48.562;8.910;2024-01-30T07:32:46;12.03;;;8.60;;
15043;SDS011;7619;48.562;8.910;2024-01-30T07:35:14;9.87;;;7.80;;
15043;SDS011;7619;48.562;8.910;2024-01-30T07:37:43;9.60;;;7.77;;
15043;SDS011;7619;48.562;8.910;2024-01-30T07:40:11;8.70;;;6.83;;
15043;SDS011;7619;48.562;8.910;2024-01-30T07:42:39;8.83;;;7.10;;
15043;SDS011;7619;48.562;8.910;2024-01-30T07:45:08;8.23;;;6.57;;
15043;SDS011;7619;48.562;8.910;2024-01-30T07:47:36;13.67;;;7.27;;
15043;SDS011;7619;48.562;8.910;2024-01-30T07:50:06;9.23;;;6.37;;
15043;SDS011;7619;48.562;8.910;2024-01-30T07:52:34;10.23;;;6.53;;
15043;SDS011;7619;48.562;8.910;2024-01-30T07:55:02;14.23;;;6.97;;
15043;SDS011;7619;48.562;8.910;2024-01-30T07:57:31;12.97;;;6.63;;
15043;SDS011;7619;48.562;8.910;2024-01-30T07:59:59;9.77;;;6.90;;
15043;SDS011;7619;48.562;8.910;2024-01-30T08:02:27;9.50;;;6.77;;
15043;SDS011;7619;48.562;8.910;2024-01-30T08:04:55;10.47;;;7.27;;
15043;SDS011;7619;48.562;8.910;2024-01-30T08:07:23;10.40;;;7.77;;
15043;SDS011;7619;48.562;8.910;2024-01-30T08:09:51;13.50;;;7.67;;
15043;SDS011;7619;48.562;8.910;2024-01-30T08:12:19;11.53;;;7.17;;
15043;SDS011;7619;48.562;8.910;2024-01-30T08:14:47;8.37;;;6.70;;
15043;SDS011;7619;48.562;8.910;2024-01-30T08:17:15;11.37;;;7.47;;
15043;SDS011;7619;48.562;8.910;2024-01-30T08:19:43;9.27;;;6.93;;
15043;SDS011;7619;48.562;8.910;2024-01-30T08:22:12;10.57;;;7.80;;
15043;SDS011;7619;48.562;8.910;2024-01-30T08:24:41;9.53;;;6.80;;
15043;SDS011;7619;48.562;8.910;2024-01-30T08:27:09;11.53;;;7.37;;
15043;SDS011;7619;48.562;8.910;2024-01-30T08:29:37;12.23;;;7.57;;
15043;SDS011;7619;48.562;8.910;2024-01-30T08:32:06;11.50;;;9.00;;
15043;SDS011;7619;48.562;8.910;2024-01-30T08:34:34;10.03;;;7.83;;
15043;SDS011;7619;48.562;8.910;2024-01-30T08:37:02;9.97;;;8.63;;
15043;SDS011;7619;48.562;8.910;2024-01-30T08:39:30;11.50;;;9.07;;
15043;SDS011;7619;48.562;8.910;2024-01-30T08:41:58;13.33;;;7.07;;
15043;SDS011;7619;48.562;8.910;2024-01-30T08:44:26;10.60;;;7.83;;
15043;SDS011;7619;48.562;8.910;2024-01-30T08:46:54;8.17;;;5.17;;
15043;SDS011;7619;48.562;8.910;2024-01-30T08:49:22;9.47;;;6.33;;
15043;SDS011;7619;48.562;8.910;2024-01-30T08:51:50;10.00;;;7.60;;
15043;SDS011;7619;48.562;8.910;2024-01-30T08:54:18;8.10;;;6.90;;
15043;SDS011;7619;48.562;8.910;2024-01-30T08:56:46;9.40;;;6.60;;
15043;SDS011;7619;48.562;8.910;2024-01-30T08:59:14;9.53;;;6.20;;
15043;SDS011;7619;48.562;8.910;2024-01-30T09:01:42;11.37;;;6.30;;
15043;SDS011;7619;48.562;8.910;2024-01-30T09:04:10;9.67;;;6.50;;
15043;SDS011;7619;48.562;8.910;2024-01-30T09:06:38;9.23;;;6.20;;
15043;SDS011;7619;48.562;8.910;2024-01-30T09:09:06;9.13;;;6.53;;
15043;SDS011;7619;48.562;8.910;2024-01-30T09:11:35;11.23;;;7.20;;
15043;SDS011;7619;48.562;8.910;2024-01-30T09:14:03;10.47;;;6.03;;
15043;SDS011;7619;48.562;8.910;2024-01-30T09:16:31;10.67;;;6.50;;
15043;SDS011;7619;48.562;8.910;2024-01-30T09:18:59;9.10;;;6.60;;
15043;SDS011;7619;48.562;8.910;2024-01-30T09:21:27;8.37;;;5.57;;
15043;SDS011;7619;48.562;8.910;2024-01-30T09:24:00;10.40;;;6.63;;
15043;SDS011;7619;48.562;8.910;2024-01-30T09:26:24;10.63;;;6.43;;
15043;SDS011;7619;48.562;8.910;2024-01-30T09:28:52;9.40;;;6.03;;
15043;SDS011;7619;48.562;8.910;2024-01-30T09:31:23;9.70;;;7.00;;
15043;SDS011;7619;48.562;8.910;2024-01-30T09:33:51;9.57;;;6.07;;
15043;SDS011;7619;48.562;8.910;2024-01-30T09:36:20;9.97;;;6.87;;
15043;SDS011;7619;48.562;8.910;2024-01-30T09:38:48;9.33;;;6.37;;
15043;SDS011;7619;48.562;8.910;2024-01-30T09:41:16;9.83;;;5.97;;
15043;SDS011;7619;48.562;8.910;2024-01-30T09:43:47;8.47;;;6.00;;
15043;SDS011;7619;48.562;8.910;2024-01-30T09:46:16;9.73;;;5.87;;
15043;SDS011;7619;48.562;8.910;2024-01-30T09:48:45;7.87;;;5.87;;
15043;SDS011;7619;48.562;8.910;2024-01-30T09:51:14;8.77;;;6.03;;
15043;SDS011;7619;48.562;8.910;2024-01-30T09:53:42;7.07;;;5.50;;
15043;SDS011;7619;48.562;8.910;2024-01-30T09:56:12;9.03;;;6.30;;
15043;SDS011;7619;48.562;8.910;2024-01-30T09:58:40;12.27;;;6.07;;
15043;SDS011;7619;48.562;8.910;2024-01-30T10:01:09;8.23;;;5.63;;
15043;SDS011;7619;48.562;8.910;2024-01-30T10:03:37;6.63;;;5.40;;
15043;SDS011;7619;48.562;8.910;2024-01-30T10:06:06;10.07;;;6.47;;
15043;SDS011;7619;48.562;8.910;2024-01-30T10:08:34;9.00;;;6.03;;
15043;SDS011;7619;48.562;8.910;2024-01-30T10:11:02;7.90;;;5.70;;
15043;SDS011;7619;48.562;8.910;2024-01-30T10:13:30;9.17;;;6.63;;
15043;SDS011;7619;48.562;8.910;2024-01-30T10:15:58;8.87;;;5.70;;
15043;SDS011;7619;48.562;8.910;2024-01-30T10:18:28;7.93;;;5.93;;
15043;SDS011;7619;48.562;8.910;2024-01-30T10:20:56;9.83;;;5.93;;
15043;SDS011;7619;48.562;8.910;2024-01-30T10:23:24;8.80;;;6.30;;
15043;SDS011;7619;48.562;8.910;2024-01-30T10:25:52;9.60;;;6.53;;
15043;SDS011;7619;48.562;8.910;2024-01-30T10:28:20;8.87;;;6.37;;
15043;SDS011;7619;48.562;8.910;2024-01-30T10:30:57;7.70;;;5.53;;
15043;SDS011;7619;48.562;8.910;2024-01-30T10:33:26;8.87;;;6.37;;
15043;SDS011;7619;48.562;8.910;2024-01-30T10:35:55;11.03;;;7.43;;
15043;SDS011;7619;48.562;8.910;2024-01-30T10:38:24;9.60;;;6.33;;
15043;SDS011;7619;48.562;8.910;2024-01-30T10:40:54;11.93;;;9.43;;
15043;SDS011;7619;48.562;8.910;2024-01-30T10:43:23;13.77;;;9.73;;
15043;SDS011;7619;48.562;8.910;2024-01-30T10:45:52;13.63;;;9.53;;
15043;SDS011;7619;48.562;8.910;2024-01-30T10:48:21;13.00;;;10.43;;
15043;SDS011;7619;48.562;8.910;2024-01-30T10:50:51;13.07;;;8.87;;
15043;SDS011;7619;48.562;8.910;2024-01-30T10:53:21;11.67;;;8.20;;
15043;SDS011;7619;48.562;8.910;2024-01-30T10:55:50;11.27;;;7.87;;
15043;SDS011;7619;48.562;8.910;2024-01-30T10:58:19;10.70;;;8.27;;
15043;SDS011;7619;48.562;8.910;2024-01-30T11:00:47;16.10;;;7.77;;
15043;SDS011;7619;48.562;8.910;2024-01-30T11:03:16;10.70;;;7.83;;
15043;SDS011;7619;48.562;8.910;2024-01-30T11:05:49;10.77;;;7.20;;
15043;SDS011;7619;48.562;8.910;2024-01-30T11:08:23;10.50;;;7.57;;
15043;SDS011;7619;48.562;8.910;2024-01-30T11:10:55;9.93;;;7.47;;
15043;SDS011;7619;48.562;8.910;2024-01-30T11:13:23;11.37;;;7.13;;
15043;SDS011;7619;48.562;8.910;2024-01-30T11:15:52;15.33;;;9.00;;
15043;SDS011;7619;48.562;8.910;2024-01-30T11:18:24;12.10;;;8.47;;
15043;SDS011;7619;48.562;8.910;2024-01-30T11:20:52;15.80;;;11.83;;
15043;SDS011;7619;48.562;8.910;2024-01-30T11:23:22;13.93;;;10.67;;
15043;SDS011;7619;48.562;8.910;2024-01-30T11:25:52;16.63;;;10.23;;
15043;SDS011;7619;48.562;8.910;2024-01-30T11:28:21;15.33;;;10.73;;
15043;SDS011;7619;48.562;8.910;2024-01-30T11:30:49;12.87;;;9.37;;
15043;SDS011;7619;48.562;8.910;2024-01-30T11:33:27;10.43;;;8.00;;
15043;SDS011;7619;48.562;8.910;2024-01-30T11:35:57;12.00;;;8.53;;
15043;SDS011;7619;48.562;8.910;2024-01-30T11:38:27;9.30;;;6.93;;
15043;SDS011;7619;48.562;8.910;2024-01-30T11:40:55;10.23;;;7.60;;
15043;SDS011;7619;48.562;8.910;2024-01-30T11:43:24;9.33;;;6.67;;
15043;SDS011;7619;48.562;8.910;2024-01-30T11:45:52;8.57;;;6.23;;
15043;SDS011;7619;48.562;8.910;2024-01-30T11:48:20;8.10;;;5.63;;
15043;SDS011;7619;48.562;8.910;2024-01-30T11:50:48;13.13;;;7.47;;
15043;SDS011;7619;48.562;8.910;2024-01-30T11:53:17;15.20;;;10.27;;
15043;SDS011;7619;48.562;8.910;2024-01-30T11:55:49;11.30;;;8.70;;
15043;SDS011;7619;48.562;8.910;2024-01-30T11:58:17;6.57;;;5.63;;
15043;SDS011;7619;48.562;8.910;2024-01-30T12:00:53;9.30;;;4.47;;
15043;SDS011;7619;48.562;8.910;2024-01-30T12:03:21;8.47;;;5.57;;
15043;SDS011;7619;48.562;8.910;2024-01-30T12:05:55;10.77;;;8.30;;
15043;SDS011;7619;48.562;8.910;2024-01-30T12:08:23;13.03;;;7.63;;
15043;SDS011;7619;48.562;8.910;2024-01-30T12:10:55;10.83;;;8.17;;
15043;SDS011;7619;48.562;8.910;2024-01-30T12:13:24;10.57;;;8.13;;
15043;SDS011;7619;48.562;8.910;2024-01-30T12:15:53;11.83;;;8.20;;
15043;SDS011;7619;48.562;8.910;2024-01-30T12:18:21;11.03;;;7.87;;
15043;SDS011;7619;48.562;8.910;2024-01-30T12:20:57;13.23;;;9.17;;
15043;SDS011;7619;48.562;8.910;2024-01-30T12:23:25;17.60;;;9.60;;
15043;SDS011;7619;48.562;8.910;2024-01-30T12:25:54;11.50;;;9.57;;
15043;SDS011;7619;48.562;8.910;2024-01-30T12:28:22;12.43;;;9.50;;
15043;SDS011;7619;48.562;8.910;2024-01-30T12:30:50;15.50;;;8.77;;
15043;SDS011;7619;48.562;8.910;2024-01-30T12:33:18;15.73;;;8.93;;
15043;SDS011;7619;48.562;8.910;2024-01-30T12:35:46;14.90;;;9.47;;
15043;SDS011;7619;48.562;8.910;2024-01-30T12:38:14;14.27;;;7.87;;
15043;SDS011;7619;48.562;8.910;2024-01-30T12:40:42;11.20;;;6.87;;
15043;SDS011;7619;48.562;8.910;2024-01-30T12:43:11;6.47;;;5.37;;
15043;SDS011;7619;48.562;8.910;2024-01-30T12:45:41;8.50;;;5.17;;
15043;SDS011;7619;48.562;8.910;2024-01-30T12:48:09;5.37;;;4.53;;
15043;SDS011;7619;48.562;8.910;2024-01-30T12:50:37;5.57;;;3.97;;
15043;SDS011;7619;48.562;8.910;2024-01-30T12:53:05;5.57;;;4.00;;
15043;SDS011;7619;48.562;8.910;2024-01-30T12:55:34;9.60;;;4.57;;
15043;SDS011;7619;48.562;8.910;2024-01-30T12:58:02;4.33;;;3.87;;
15043;SDS011;7619;48.562;8.910;2024-01-30T13:00:30;7.43;;;3.47;;
15043;SDS011;7619;48.562;8.910;2024-01-30T13:02:58;4.20;;;3.60;;
15043;SDS011;7619;48.562;8.910;2024-01-30T13:05:26;4.40;;;3.43;;
15043;SDS011;7619;48.562;8.910;2024-01-30T13:07:54;8.50;;;4.07;;
15043;SDS011;7619;48.562;8.910;2024-01-30T13:10:24;6.13;;;4.10;;
15043;SDS011;7619;48.562;8.910;2024-01-30T13:12:52;3.93;;;3.53;;
15043;SDS011;7619;48.562;8.910;2024-01-30T13:15:20;5.50;;;3.53;;
15043;SDS011;7619;48.562;8.910;2024-01-30T13:17:49;5.13;;;4.07;;
15043;SDS011;7619;48.562;8.910;2024-01-30T13:20:17;6.73;;;3.97;;
15043;SDS011;7619;48.562;8.910;2024-01-30T13:22:47;6.20;;;3.90;;
15043;SDS011;7619;48.562;8.910;2024-01-30T13:25:16;5.87;;;3.70;;
15043;SDS011;7619;48.562;8.910;2024-01-30T13:27:44;6.37;;;3.57;;
15043;SDS011;7619;48.562;8.910;2024-01-30T13:30:13;5.47;;;3.60;;
15043;SDS011;7619;48.562;8.910;2024-01-30T13:32:41;5.03;;;3.53;;
15043;SDS011;7619;48.562;8.910;2024-01-30T13:35:10;4.83;;;3.53;;
15043;SDS011;7619;48.562;8.910;2024-01-30T13:37:38;4.07;;;2.90;;
15043;SDS011;7619;48.562;8.910;2024-01-30T13:40:09;5.00;;;3.40;;
15043;SDS011;7619;48.562;8.910;2024-01-30T13:42:37;5.57;;;3.60;;
15043;SDS011;7619;48.562;8.910;2024-01-30T13:45:07;6.63;;;4.23;;
15043;SDS011;7619;48.562;8.910;2024-01-30T13:47:36;6.23;;;4.23;;
15043;SDS011;7619;48.562;8.910;2024-01-30T13:50:05;4.97;;;3.83;;
15043;SDS011;7619;48.562;8.910;2024-01-30T13:52:33;7.13;;;4.00;;
15043;SDS011;7619;48.562;8.910;2024-01-30T13:55:01;6.57;;;4.70;;
15043;SDS011;7619;48.562;8.910;2024-01-30T13:57:30;4.77;;;3.93;;
15043;SDS011;7619;48.562;8.910;2024-01-30T14:00:00;3.57;;;2.90;;
15043;SDS011;7619;48.562;8.910;2024-01-30T14:02:30;5.70;;;3.47;;
15043;SDS011;7619;48.562;8.910;2024-01-30T14:04:58;6.13;;;4.10;;
15043;SDS011;7619;48.562;8.910;2024-01-30T14:07:26;3.33;;;2.63;;
15043;SDS011;7619;48.562;8.910;2024-01-30T14:09:54;3.00;;;2.00;;
15043;SDS011;7619;48.562;8.910;2024-01-30T14:12:22;3.83;;;2.07;;
15043;SDS011;7619;48.562;8.910;2024-01-30T14:14:50;2.50;;;1.90;;
15043;SDS011;7619;48.562;8.910;2024-01-30T14:17:18;2.17;;;1.97;;
15043;SDS011;7619;48.562;8.910;2024-01-30T14:19:46;3.53;;;2.23;;
15043;SDS011;7619;48.562;8.910;2024-01-30T14:22:14;5.10;;;3.67;;
15043;SDS011;7619;48.562;8.910;2024-01-30T14:24:42;4.87;;;3.27;;
15043;SDS011;7619;48.562;8.910;2024-01-30T14:27:10;5.97;;;3.43;;
15043;SDS011;7619;48.562;8.910;2024-01-30T14:29:38;4.27;;;3.37;;
15043;SDS011;7619;48.562;8.910;2024-01-30T14:32:08;6.57;;;3.07;;
15043;SDS011;7619;48.562;8.910;2024-01-30T14:34:36;4.13;;;2.67;;
15043;SDS011;7619;48.562;8.910;2024-01-30T14:37:04;3.23;;;2.57;;
15043;SDS011;7619;48.562;8.910;2024-01-30T14:39:32;3.33;;;2.40;;
15043;SDS011;7619;48.562;8.910;2024-01-30T14:42:00;2.90;;;2.17;;
15043;SDS011;7619;48.562;8.910;2024-01-30T14:44:28;4.00;;;2.70;;
15043;SDS011;7619;48.562;8.910;2024-01-30T14:46:57;3.20;;;1.97;;
15043;SDS011;7619;48.562;8.910;2024-01-30T14:49:25;3.97;;;2.10;;
15043;SDS011;7619;48.562;8.910;2024-01-30T14:51:54;3.10;;;2.10;;
15043;SDS011;7619;48.562;8.910;2024-01-30T14:54:22;2.97;;;1.80;;
15043;SDS011;7619;48.562;8.910;2024-01-30T14:56:50;3.20;;;1.83;;
15043;SDS011;7619;48.562;8.910;2024-01-30T14:59:18;4.33;;;2.27;;